createdAt,value
2022-09-24T00:01:28.220Z,4.18
2022-09-24T00:03:57.335Z,3.88
2022-09-24T00:06:24.220Z,5.20
2022-09-24T00:08:55.025Z,3.83
2022-09-24T00:11:23.472Z,4.75
2022-09-24T00:13:52.064Z,3.15
2022-09-24T00:16:21.180Z,4.72
2022-09-24T00:18:47.930Z,4.43
2022-09-24T00:21:21.103Z,4.10
2022-09-24T00:23:56.439Z,4.07
2022-09-24T00:26:41.933Z,4.10
2022-09-24T00:29:09.794Z,5.28
2022-09-24T00:31:36.708Z,2.97
2022-09-24T00:34:04.457Z,5.85
2022-09-24T00:36:30.991Z,4.97
2022-09-24T00:38:59.649Z,2.88
2022-09-24T00:41:30.066Z,4.82
2022-09-24T00:43:57.653Z,3.17
2022-09-24T00:46:41.100Z,3.92
2022-09-24T00:49:12.523Z,4.53
2022-09-24T00:51:41.484Z,2.67
2022-09-24T00:54:11.695Z,4.55
2022-09-24T00:56:40.976Z,4.10
2022-09-24T00:59:11.534Z,3.35
2022-09-24T01:01:38.054Z,3.97
2022-09-24T01:04:07.297Z,7.43
2022-09-24T01:06:33.950Z,6.78
2022-09-24T01:09:00.889Z,6.95
2022-09-24T01:11:45.839Z,4.47
2022-09-24T01:14:32.935Z,4.13
2022-09-24T01:17:20.892Z,3.75
2022-09-24T01:19:58.572Z,5.07
2022-09-24T01:22:54.616Z,4.68
2022-09-24T01:25:36.337Z,4.30
2022-09-24T01:28:27.608Z,4.57
2022-09-24T01:31:01.076Z,4.82
2022-09-24T01:33:31.308Z,4.22
2022-09-24T01:36:04.864Z,3.33
2022-09-24T01:38:38.608Z,3.70
2022-09-24T01:41:08.481Z,4.05
2022-09-24T01:43:35.130Z,4.97
2022-09-24T01:46:05.974Z,3.47
2022-09-24T01:48:37.417Z,2.63
2022-09-24T01:51:26.640Z,3.35
2022-09-24T01:54:04.545Z,5.25
2022-09-24T01:56:41.356Z,3.45
2022-09-24T01:59:19.508Z,4.28
2022-09-24T02:01:57.098Z,3.03
2022-09-24T02:04:27.312Z,3.33
2022-09-24T02:07:03.184Z,4.20
2022-09-24T02:09:34.125Z,4.03
2022-09-24T02:12:08.952Z,3.70
2022-09-24T02:14:42.550Z,5.28
2022-09-24T02:17:10.769Z,6.68
2022-09-24T02:19:39.776Z,3.63
2022-09-24T02:22:09.476Z,3.25
2022-09-24T02:24:45.595Z,3.65
2022-09-24T02:27:12.459Z,7.10
2022-09-24T02:29:39.414Z,3.75
2022-09-24T02:32:09.279Z,6.10
2022-09-24T02:34:44.129Z,5.50
2022-09-24T02:37:14.096Z,3.83
2022-09-24T02:39:41.670Z,3.83
2022-09-24T02:42:11.229Z,3.80
2022-09-24T02:44:37.810Z,3.30
2022-09-24T02:47:04.855Z,3.70
2022-09-24T02:49:31.323Z,3.85
2022-09-24T02:51:57.922Z,3.90
2022-09-24T02:54:25.250Z,3.35
2022-09-24T02:56:52.280Z,3.22
2022-09-24T02:59:19.358Z,4.05
2022-09-24T03:01:46.671Z,3.20
2022-09-24T03:04:15.530Z,4.38
2022-09-24T03:06:42.777Z,5.40
2022-09-24T03:09:12.928Z,4.50
2022-09-24T03:11:40.025Z,3.65
2022-09-24T03:14:06.736Z,2.88
2022-09-24T03:16:33.842Z,4.63
2022-09-24T03:19:00.455Z,7.35
2022-09-24T03:21:26.984Z,4.35
2022-09-24T03:23:53.692Z,4.75
2022-09-24T03:26:20.239Z,2.97
2022-09-24T03:28:46.767Z,3.17
2022-09-24T03:31:14.931Z,5.63
2022-09-24T03:33:44.160Z,3.58
2022-09-24T03:36:16.194Z,3.47
2022-09-24T03:38:44.165Z,4.32
2022-09-24T03:41:12.190Z,4.30
2022-09-24T03:43:39.181Z,2.97
2022-09-24T03:46:07.495Z,4.95
2022-09-24T03:48:36.769Z,3.17
2022-09-24T03:51:05.296Z,2.80
2022-09-24T03:53:32.526Z,2.90
2022-09-24T03:55:59.967Z,3.95
2022-09-24T03:58:26.712Z,4.78
2022-09-24T04:00:54.064Z,7.00
2022-09-24T04:03:22.250Z,3.95
2022-09-24T04:05:51.278Z,4.78
2022-09-24T04:08:22.206Z,4.60
2022-09-24T04:10:50.365Z,5.15
2022-09-24T04:13:18.522Z,4.40
2022-09-24T04:15:45.500Z,3.80
2022-09-24T04:18:12.313Z,4.72
2022-09-24T04:20:38.808Z,4.80
2022-09-24T04:23:05.444Z,4.65
2022-09-24T04:25:32.704Z,4.57
2022-09-24T04:28:05.741Z,4.90
2022-09-24T04:30:33.783Z,4.97
2022-09-24T04:33:01.153Z,4.88
2022-09-24T04:35:29.944Z,3.53
2022-09-24T04:37:57.245Z,3.47
2022-09-24T04:40:23.979Z,4.68
2022-09-24T04:42:50.762Z,5.18
2022-09-24T04:45:21.261Z,5.43
2022-09-24T04:47:57.282Z,5.22
2022-09-24T04:50:26.236Z,6.38
2022-09-24T04:52:54.027Z,3.78
2022-09-24T04:55:21.097Z,5.28
2022-09-24T04:57:47.974Z,3.65
2022-09-24T05:00:17.382Z,4.13
2022-09-24T05:02:44.938Z,5.97
2022-09-24T05:05:13.137Z,4.80
2022-09-24T05:07:40.186Z,4.53
2022-09-24T05:10:07.197Z,4.25
2022-09-24T05:12:36.427Z,4.05
2022-09-24T05:15:04.256Z,4.45
2022-09-24T05:17:31.064Z,5.88
2022-09-24T05:20:01.438Z,4.90
2022-09-24T05:22:28.001Z,4.65
2022-09-24T05:24:54.937Z,4.90
2022-09-24T05:27:23.163Z,4.50
2022-09-24T05:29:50.302Z,5.07
2022-09-24T05:32:19.679Z,4.43
2022-09-24T05:34:47.322Z,6.03
2022-09-24T05:37:15.175Z,4.78
2022-09-24T05:39:41.845Z,6.43
2022-09-24T05:42:15.718Z,3.83
2022-09-24T05:44:44.256Z,5.32
2022-09-24T05:47:13.236Z,5.88
2022-09-24T05:49:39.672Z,4.03
2022-09-24T05:52:06.492Z,7.00
2022-09-24T05:54:33.130Z,4.88
2022-09-24T05:57:00.040Z,5.53
2022-09-24T05:59:26.505Z,5.20
2022-09-24T06:01:53.036Z,3.42
2022-09-24T06:04:19.649Z,11.55
2022-09-24T06:06:46.126Z,5.07
2022-09-24T06:09:13.541Z,7.47
2022-09-24T06:11:41.128Z,3.55
2022-09-24T06:14:08.744Z,4.47
2022-09-24T06:16:35.928Z,4.88
2022-09-24T06:19:02.723Z,4.55
2022-09-24T06:21:29.368Z,4.30
2022-09-24T06:23:56.011Z,7.63
2022-09-24T06:26:22.650Z,5.07
2022-09-24T06:28:49.331Z,5.95
2022-09-24T06:31:15.735Z,5.50
2022-09-24T06:33:42.516Z,6.40
2022-09-24T06:36:09.405Z,4.20
2022-09-24T06:38:36.508Z,5.82
2022-09-24T06:41:05.184Z,8.13
2022-09-24T06:43:32.693Z,5.57
2022-09-24T06:46:00.259Z,9.70
2022-09-24T06:48:28.061Z,6.90
2022-09-24T06:50:56.241Z,6.10
2022-09-24T06:53:22.842Z,5.05
2022-09-24T06:55:49.337Z,5.53
2022-09-24T06:58:20.993Z,10.45
2022-09-24T07:00:58.931Z,5.63
2022-09-24T07:03:27.732Z,6.13
2022-09-24T07:05:54.598Z,5.10
2022-09-24T07:08:21.598Z,4.93
2022-09-24T07:10:49.198Z,5.25
2022-09-24T07:13:16.496Z,4.20
2022-09-24T07:15:43.970Z,5.30
2022-09-24T07:18:12.207Z,4.07
2022-09-24T07:20:39.437Z,5.32
2022-09-24T07:23:08.007Z,4.57
2022-09-24T07:25:34.746Z,6.10
2022-09-24T07:28:06.653Z,5.22
2022-09-24T07:30:34.730Z,7.40
2022-09-24T07:33:01.315Z,5.97
2022-09-24T07:35:28.752Z,4.93
2022-09-24T07:38:03.651Z,4.70
2022-09-24T07:40:31.245Z,8.95
2022-09-24T07:42:58.535Z,5.80
2022-09-24T07:45:30.154Z,6.32
2022-09-24T07:47:58.441Z,6.55
2022-09-24T07:50:25.579Z,6.35
2022-09-24T07:52:52.119Z,4.20
2022-09-24T07:55:19.031Z,8.30
2022-09-24T07:57:51.862Z,7.95
2022-09-24T08:00:20.221Z,6.65
2022-09-24T08:02:47.770Z,5.10
2022-09-24T08:05:18.016Z,7.05
2022-09-24T08:07:55.515Z,9.75
2022-09-24T08:10:23.202Z,4.82
2022-09-24T08:12:49.719Z,3.50
2022-09-24T08:15:16.748Z,8.65
2022-09-24T08:17:43.447Z,4.65
2022-09-24T08:20:10.397Z,5.07
2022-09-24T08:22:36.940Z,6.28
2022-09-24T08:25:04.389Z,5.10
2022-09-24T08:27:33.072Z,5.70
2022-09-24T08:30:00.705Z,5.95
2022-09-24T08:32:29.174Z,4.80
2022-09-24T08:34:55.661Z,5.45
2022-09-24T08:37:22.321Z,8.55
2022-09-24T08:39:48.807Z,6.13
2022-09-24T08:42:30.905Z,8.00
2022-09-24T08:45:17.318Z,7.28
2022-09-24T08:47:50.339Z,6.38
2022-09-24T08:50:25.609Z,8.27
2022-09-24T08:53:14.874Z,5.65
2022-09-24T08:55:45.968Z,5.45
2022-09-24T08:58:28.408Z,5.50
2022-09-24T09:01:10.029Z,4.95
2022-09-24T09:03:39.302Z,7.60
2022-09-24T09:06:36.060Z,6.28
2022-09-24T09:09:20.275Z,5.25
2022-09-24T09:11:51.412Z,8.15
2022-09-24T09:14:26.093Z,7.18
2022-09-24T09:17:00.391Z,5.20
2022-09-24T09:19:33.752Z,4.90
2022-09-24T09:22:11.388Z,5.00
2022-09-24T09:24:52.498Z,4.50
2022-09-24T09:27:20.792Z,5.97
2022-09-24T09:29:51.741Z,5.00
2022-09-24T09:32:39.151Z,4.63
2022-09-24T09:35:31.306Z,4.63
2022-09-24T09:38:09.954Z,4.70
2022-09-24T09:40:46.012Z,5.68
2022-09-24T09:43:14.609Z,5.82
2022-09-24T09:45:56.397Z,4.63
2022-09-24T09:48:27.009Z,5.95
2022-09-24T09:50:59.289Z,5.53
2022-09-24T09:53:28.357Z,5.47
2022-09-24T09:56:00.858Z,6.63
2022-09-24T09:58:31.150Z,5.00
2022-09-24T10:01:31.708Z,4.07
2022-09-24T10:04:04.514Z,4.45
2022-09-24T10:06:33.482Z,3.97
2022-09-24T10:09:11.865Z,6.40
2022-09-24T10:11:38.403Z,8.55
2022-09-24T10:14:06.275Z,4.22
2022-09-24T10:16:51.317Z,5.55
2022-09-24T10:19:23.727Z,4.30
2022-09-24T10:21:52.400Z,4.45
2022-09-24T10:24:22.490Z,5.75
2022-09-24T10:26:49.723Z,5.05
2022-09-24T10:29:49.349Z,7.93
2022-09-24T10:32:24.019Z,5.78
2022-09-24T10:34:58.633Z,7.30
2022-09-24T10:37:25.745Z,4.07
2022-09-24T10:40:10.725Z,5.18
2022-09-24T10:42:37.883Z,4.82
2022-09-24T10:45:14.008Z,2.80
2022-09-24T10:47:59.431Z,7.95
2022-09-24T10:50:34.431Z,7.70
2022-09-24T10:53:06.685Z,3.55
2022-09-24T10:55:46.105Z,3.42
2022-09-24T10:58:29.879Z,3.10
2022-09-24T11:01:11.631Z,5.43
2022-09-24T11:04:07.295Z,3.92
2022-09-24T11:06:49.557Z,6.07
2022-09-24T11:09:40.861Z,4.75
2022-09-24T11:12:24.725Z,3.38
2022-09-24T11:15:21.891Z,4.05
2022-09-24T11:17:57.408Z,4.50
2022-09-24T11:20:35.723Z,5.53
2022-09-24T11:23:23.333Z,5.32
2022-09-24T11:26:02.995Z,8.88
2022-09-24T11:28:59.647Z,7.63
2022-09-24T11:31:34.354Z,5.93
2022-09-24T11:34:38.825Z,5.43
2022-09-24T11:37:23.044Z,5.72
2022-09-24T11:39:55.449Z,4.35
2022-09-24T11:42:28.985Z,5.15
2022-09-24T11:45:11.160Z,7.32
2022-09-24T11:48:04.044Z,5.75
2022-09-24T11:51:07.828Z,10.13
2022-09-24T11:53:49.222Z,5.40
2022-09-24T11:56:46.221Z,5.70
2022-09-24T11:59:34.905Z,6.47
2022-09-24T12:02:13.833Z,7.95
2022-09-24T12:04:51.021Z,10.80
2022-09-24T12:07:24.546Z,10.40
2022-09-24T12:10:13.703Z,9.88
2022-09-24T12:12:43.006Z,8.70
2022-09-24T12:15:21.929Z,11.48
2022-09-24T12:17:54.764Z,8.15
2022-09-24T12:20:28.239Z,7.47
2022-09-24T12:23:01.851Z,7.28
2022-09-24T12:25:34.630Z,10.60
2022-09-24T12:28:01.628Z,7.72
2022-09-24T12:31:01.659Z,6.63
2022-09-24T12:33:42.562Z,9.52
2022-09-24T12:36:19.647Z,7.75
2022-09-24T12:39:09.571Z,8.07
2022-09-24T12:41:39.745Z,14.50
2022-09-24T12:44:21.732Z,12.95
2022-09-24T12:46:53.692Z,9.02
2022-09-24T12:49:26.286Z,7.72
2022-09-24T12:51:55.760Z,10.23
2022-09-24T12:54:35.127Z,7.57
2022-09-24T12:57:22.832Z,8.10
2022-09-24T12:59:58.992Z,8.18
2022-09-24T13:02:29.068Z,10.18
2022-09-24T13:05:01.865Z,9.90
2022-09-24T13:07:40.736Z,9.88
2022-09-24T13:10:16.516Z,7.50
2022-09-24T13:12:43.924Z,11.20
2022-09-24T13:15:33.803Z,11.02
2022-09-24T13:18:13.774Z,8.32
2022-09-24T13:20:47.612Z,11.57
2022-09-24T13:23:22.286Z,10.48
2022-09-24T13:26:03.772Z,9.77
2022-09-24T13:29:01.547Z,9.02
2022-09-24T13:31:28.060Z,9.75
2022-09-24T13:34:11.610Z,8.77
2022-09-24T13:36:47.073Z,9.90
2022-09-24T13:39:46.784Z,8.25
2022-09-24T13:42:19.883Z,12.45
2022-09-24T13:44:55.462Z,7.93
2022-09-24T13:47:37.948Z,10.77
2022-09-24T13:50:15.006Z,11.00
2022-09-24T13:52:53.854Z,12.15
2022-09-24T13:55:31.527Z,13.15
2022-09-24T13:57:58.126Z,10.98
2022-09-24T14:00:27.550Z,12.65
2022-09-24T14:03:17.409Z,14.65
2022-09-24T14:05:44.295Z,11.77
2022-09-24T14:08:15.592Z,15.52
2022-09-24T14:10:42.943Z,12.80
2022-09-24T14:13:21.818Z,12.40
2022-09-24T14:15:56.495Z,13.68
2022-09-24T14:18:24.783Z,14.27
2022-09-24T14:21:25.784Z,14.75
2022-09-24T14:24:00.163Z,13.32
2022-09-24T14:26:34.193Z,13.13
2022-09-24T14:29:07.607Z,13.75
2022-09-24T14:31:43.864Z,9.10
2022-09-24T14:34:24.385Z,12.50
2022-09-24T14:36:51.421Z,10.63
2022-09-24T14:39:17.977Z,10.20
2022-09-24T14:41:44.585Z,11.35
2022-09-24T14:44:27.738Z,9.13
2022-09-24T14:46:58.150Z,9.77
2022-09-24T14:49:32.326Z,10.93
2022-09-24T14:52:04.203Z,10.60
2022-09-24T14:54:40.205Z,7.15
2022-09-24T14:57:18.935Z,7.45
2022-09-24T14:59:46.684Z,8.20
2022-09-24T15:02:29.809Z,7.45
2022-09-24T15:05:05.483Z,7.63
2022-09-24T15:07:34.858Z,10.52
2022-09-24T15:10:04.256Z,5.57
2022-09-24T15:12:33.671Z,6.32
2022-09-24T15:15:24.934Z,5.60
2022-09-24T15:17:51.393Z,5.53
2022-09-24T15:20:17.860Z,5.95
2022-09-24T15:22:46.725Z,4.93
2022-09-24T15:25:14.655Z,7.32
2022-09-24T15:27:44.362Z,7.43
2022-09-24T15:30:17.690Z,4.32
2022-09-24T15:32:44.204Z,4.45
2022-09-24T15:35:15.677Z,5.05
2022-09-24T15:37:43.162Z,5.53
2022-09-24T15:40:33.736Z,5.78
2022-09-24T15:43:00.292Z,7.65
2022-09-24T15:45:26.766Z,5.05
2022-09-24T15:47:53.785Z,7.68
2022-09-24T15:50:22.502Z,7.80
2022-09-24T15:52:54.217Z,5.25
2022-09-24T15:55:22.303Z,7.20
2022-09-24T15:57:48.918Z,6.00
2022-09-24T16:00:18.483Z,6.05
2022-09-24T16:02:49.581Z,6.68
2022-09-24T16:05:16.924Z,7.78
2022-09-24T16:07:43.429Z,7.47
2022-09-24T16:10:11.679Z,6.30
2022-09-24T16:12:38.696Z,7.90
2022-09-24T16:15:05.808Z,7.00
2022-09-24T16:17:32.901Z,5.78
2022-09-24T16:19:59.841Z,6.88
2022-09-24T16:22:26.363Z,6.28
2022-09-24T16:24:54.122Z,7.28
2022-09-24T16:27:20.664Z,8.15
2022-09-24T16:29:47.191Z,8.18
2022-09-24T16:32:13.918Z,6.13
2022-09-24T16:34:40.960Z,7.22
2022-09-24T16:37:08.646Z,7.55
2022-09-24T16:39:35.178Z,10.20
2022-09-24T16:42:02.027Z,11.57
2022-09-24T16:44:28.496Z,8.90
2022-09-24T16:46:54.991Z,7.57
2022-09-24T16:49:23.715Z,9.30
2022-09-24T16:51:50.277Z,9.32
2022-09-24T16:54:18.918Z,7.82
2022-09-24T16:56:50.141Z,8.73
2022-09-24T16:59:16.665Z,9.35
2022-09-24T17:01:43.218Z,7.95
2022-09-24T17:04:10.259Z,8.40
2022-09-24T17:06:37.767Z,9.05
2022-09-24T17:09:23.056Z,8.70
2022-09-24T17:11:49.858Z,10.75
2022-09-24T17:14:17.748Z,9.50
2022-09-24T17:16:44.687Z,9.18
2022-09-24T17:19:11.893Z,10.10
2022-09-24T17:21:41.202Z,9.55
2022-09-24T17:24:08.349Z,8.38
2022-09-24T17:26:35.317Z,9.32
2022-09-24T17:29:01.950Z,8.85
2022-09-24T17:31:28.718Z,11.52
2022-09-24T17:33:57.132Z,9.57
2022-09-24T17:36:24.563Z,9.32
2022-09-24T17:38:51.921Z,10.82
2022-09-24T17:41:19.208Z,13.63
2022-09-24T17:43:45.916Z,10.25
2022-09-24T17:46:22.556Z,14.65
2022-09-24T17:48:52.115Z,13.07
2022-09-24T17:51:32.493Z,10.10
2022-09-24T17:54:01.489Z,13.73
2022-09-24T17:56:30.205Z,10.50
2022-09-24T17:58:56.745Z,12.95
2022-09-24T18:01:27.761Z,15.63
2022-09-24T18:03:56.098Z,19.27
2022-09-24T18:06:27.100Z,14.43
2022-09-24T18:08:56.986Z,14.70
2022-09-24T18:11:25.983Z,16.35
2022-09-24T18:13:57.580Z,17.05
2022-09-24T18:16:30.173Z,13.63
2022-09-24T18:18:59.580Z,10.68
2022-09-24T18:21:26.888Z,9.88
2022-09-24T18:23:54.672Z,11.35
2022-09-24T18:26:28.143Z,12.10
2022-09-24T18:29:15.767Z,12.73
2022-09-24T18:31:43.143Z,14.32
2022-09-24T18:34:13.071Z,10.60
2022-09-24T18:36:41.119Z,14.80
2022-09-24T18:39:11.555Z,16.05
2022-09-24T18:41:38.724Z,15.57
2022-09-24T18:44:06.219Z,13.93
2022-09-24T18:46:33.697Z,14.27
2022-09-24T18:49:02.090Z,15.23
2022-09-24T18:51:33.938Z,14.68
2022-09-24T18:54:21.339Z,13.35
2022-09-24T18:56:47.857Z,14.73
2022-09-24T18:59:18.036Z,13.35
2022-09-24T19:01:46.885Z,15.02
2022-09-24T19:04:14.224Z,12.43
2022-09-24T19:06:43.198Z,13.30
2022-09-24T19:09:11.602Z,17.85
2022-09-24T19:11:39.824Z,14.18
2022-09-24T19:14:06.555Z,13.85
2022-09-24T19:16:33.524Z,12.43
2022-09-24T19:19:01.178Z,14.30
2022-09-24T19:21:27.841Z,13.57
2022-09-24T19:23:56.198Z,13.10
2022-09-24T19:26:26.126Z,12.75
2022-09-24T19:28:53.668Z,12.52
2022-09-24T19:31:23.196Z,15.80
2022-09-24T19:33:51.680Z,15.32
2022-09-24T19:36:19.000Z,18.35
2022-09-24T19:38:45.954Z,14.68
2022-09-24T19:41:21.245Z,14.52
2022-09-24T19:43:49.119Z,13.88
2022-09-24T19:46:17.069Z,15.55
2022-09-24T19:48:46.238Z,17.02
2022-09-24T19:51:16.092Z,14.77
2022-09-24T19:53:43.660Z,14.70
2022-09-24T19:56:14.242Z,17.83
2022-09-24T19:58:41.324Z,16.02
2022-09-24T20:01:11.419Z,16.08
2022-09-24T20:03:41.691Z,13.25
2022-09-24T20:06:14.217Z,12.10
2022-09-24T20:08:41.570Z,12.90
2022-09-24T20:11:10.857Z,15.68
2022-09-24T20:13:46.270Z,15.27
2022-09-24T20:16:19.693Z,12.57
2022-09-24T20:18:50.476Z,10.80
2022-09-24T20:21:18.833Z,12.15
2022-09-24T20:23:47.061Z,12.60
2022-09-24T20:26:33.760Z,13.60
2022-09-24T20:29:02.070Z,11.15
2022-09-24T20:31:29.233Z,13.35
2022-09-24T20:33:56.340Z,11.48
2022-09-24T20:36:24.617Z,10.90
2022-09-24T20:38:52.332Z,16.08
2022-09-24T20:41:21.679Z,15.85
2022-09-24T20:43:48.519Z,14.00
2022-09-24T20:46:24.329Z,16.33
2022-09-24T20:48:51.887Z,15.38
2022-09-24T20:51:21.247Z,13.23
2022-09-24T20:53:49.164Z,13.82
2022-09-24T20:56:17.930Z,12.52
2022-09-24T20:58:44.524Z,12.20
2022-09-24T21:01:11.605Z,12.15
2022-09-24T21:03:45.247Z,11.90
2022-09-24T21:06:14.906Z,12.00
2022-09-24T21:08:44.179Z,13.88
2022-09-24T21:11:17.944Z,13.07
2022-09-24T21:13:50.767Z,15.38
2022-09-24T21:16:22.624Z,10.27
2022-09-24T21:18:50.728Z,12.52
2022-09-24T21:21:26.398Z,13.80
2022-09-24T21:23:54.222Z,12.68
2022-09-24T21:26:29.010Z,13.90
2022-09-24T21:29:05.419Z,11.70
2022-09-24T21:31:33.314Z,11.68
2022-09-24T21:34:00.460Z,10.13
2022-09-24T21:36:29.939Z,11.75
2022-09-24T21:38:59.225Z,12.35
2022-09-24T21:41:28.411Z,13.27
2022-09-24T21:43:55.787Z,11.50
2022-09-24T21:46:23.878Z,11.82
2022-09-24T21:48:51.250Z,11.55
2022-09-24T21:51:22.165Z,12.68
2022-09-24T21:53:50.525Z,13.88
2022-09-24T21:56:20.580Z,12.15
2022-09-24T21:58:48.352Z,12.27
2022-09-24T22:01:18.007Z,13.50
2022-09-24T22:03:47.481Z,13.40
2022-09-24T22:06:15.339Z,13.90
2022-09-24T22:08:43.060Z,12.93
2022-09-24T22:11:11.453Z,11.20
2022-09-24T22:13:38.793Z,11.70
2022-09-24T22:16:07.875Z,12.55
2022-09-24T22:18:34.804Z,12.95
2022-09-24T22:21:09.189Z,14.95
2022-09-24T22:23:35.904Z,11.45
2022-09-24T22:26:03.116Z,13.30
2022-09-24T22:28:29.899Z,14.05
2022-09-24T22:30:59.394Z,14.32
2022-09-24T22:33:47.619Z,12.40
2022-09-24T22:36:14.491Z,14.05
2022-09-24T22:38:41.280Z,14.35
2022-09-24T22:41:10.730Z,13.18
2022-09-24T22:43:38.499Z,13.50
2022-09-24T22:46:09.896Z,13.23
2022-09-24T22:48:36.562Z,15.45
2022-09-24T22:51:04.851Z,12.70
2022-09-24T22:53:39.248Z,18.70
2022-09-24T22:56:11.622Z,13.50
2022-09-24T22:58:41.271Z,13.68
2022-09-24T23:01:10.035Z,13.75
2022-09-24T23:03:37.664Z,16.05
2022-09-24T23:06:06.109Z,13.55
2022-09-24T23:08:34.390Z,13.07
2022-09-24T23:11:19.302Z,17.65
2022-09-24T23:13:50.425Z,12.98
2022-09-24T23:16:19.390Z,14.38
2022-09-24T23:18:47.854Z,15.25
2022-09-24T23:21:19.781Z,15.52
2022-09-24T23:23:46.890Z,16.40
2022-09-24T23:26:17.101Z,20.20
2022-09-24T23:28:45.973Z,13.27
2022-09-24T23:31:14.569Z,12.70
2022-09-24T23:33:42.190Z,14.00
2022-09-24T23:36:11.193Z,15.23
2022-09-24T23:38:38.057Z,14.48
2022-09-24T23:41:05.947Z,15.13
2022-09-24T23:43:33.311Z,16.08
2022-09-24T23:46:01.180Z,16.20
2022-09-24T23:48:28.341Z,15.10
2022-09-24T23:50:55.050Z,15.68
2022-09-24T23:53:21.954Z,16.48
2022-09-24T23:55:49.506Z,15.73
2022-09-24T23:58:19.117Z,17.33
